Morristown, Indiana
Current Conditions -  °F | °C
As of 11:53 PM on Saturday 25 Oct 2014 (Local Time) from KGEZ Reporting Station
Clear Clear  
Wind Chill: 60°   Ceiling: Unl
Heat Index: 60°   Visibility: 10mi
Dew Point: 42°   Wind: 8mph
Humidity: 51%   Direction: 300°WNW
Pressure: 29.96"   Gusts: NA
Location:  39.67°N, 85.7°W
Report Text: KGEZ 260353Z AUTO 30007KT 10SM CLR 16/06 A2996 RMK AO2 SLP141 T01560056
Loading
Personal Weather Stations






























Interactive Weather Map
Tropical Storm Tracking
New forecast layout! Learn more

10-Day Weather Forecast

Advertisements
Track Severe Weather on mobile